sensor_id;sensor_type;location;lat;lon;timestamp;pressure;altitude;pressure_sealevel;temperature;humidity
9307;BME280;4691;47.612;7.610;2023-02-10T00:01:23;100502.09;;;-2.73;100.00
9307;BME280;4691;47.612;7.610;2023-02-10T00:03:48;100494.25;;;-2.76;100.00
9307;BME280;4691;47.612;7.610;2023-02-10T00:06:15;100490.75;;;-2.76;100.00
9307;BME280;4691;47.612;7.610;2023-02-10T00:08:41;100480.28;;;-2.70;100.00
9307;BME280;4691;47.612;7.610;2023-02-10T00:11:10;100482.94;;;-2.63;100.00
9307;BME280;4691;47.612;7.610;2023-02-10T00:13:36;100478.56;;;-2.57;100.00
9307;BME280;4691;47.612;7.610;2023-02-10T00:16:04;100482.97;;;-2.35;100.00
9307;BME280;4691;47.612;7.610;2023-02-10T00:18:30;100489.09;;;-2.36;100.00
9307;BME280;4691;47.612;7.610;2023-02-10T00:20:56;100485.63;;;-2.26;100.00
9307;BME280;4691;47.612;7.610;2023-02-10T00:23:29;100485.59;;;-2.27;100.00
9307;BME280;4691;47.612;7.610;2023-02-10T00:25:54;100486.47;;;-2.37;100.00
9307;BME280;4691;47.612;7.610;2023-02-10T00:28:20;100499.56;;;-2.51;100.00
9307;BME280;4691;47.612;7.610;2023-02-10T00:30:45;100502.13;;;-2.65;100.00
9307;BME280;4691;47.612;7.610;2023-02-10T00:33:10;100507.38;;;-2.70;100.00
9307;BME280;4691;47.612;7.610;2023-02-10T00:35:37;100499.53;;;-2.67;100.00
9307;BME280;4691;47.612;7.610;2023-02-10T00:38:02;100496.03;;;-2.69;100.00
9307;BME280;4691;47.612;7.610;2023-02-10T00:40:27;100487.28;;;-2.80;100.00
9307;BME280;4691;47.612;7.610;2023-02-10T00:42:52;100482.91;;;-2.70;100.00
9307;BME280;4691;47.612;7.610;2023-02-10T00:45:18;100475.94;;;-2.65;100.00
9307;BME280;4691;47.612;7.610;2023-02-10T00:47:43;100469.84;;;-2.69;100.00
9307;BME280;4691;47.612;7.610;2023-02-10T00:50:08;100470.69;;;-2.68;100.00
9307;BME280;4691;47.612;7.610;2023-02-10T00:52:34;100466.31;;;-2.85;100.00
9307;BME280;4691;47.612;7.610;2023-02-10T00:54:59;100462.78;;;-2.88;100.00
9307;BME280;4691;47.612;7.610;2023-02-10T00:57:24;100465.34;;;-3.03;100.00
9307;BME280;4691;47.612;7.610;2023-02-10T00:59:49;100457.50;;;-3.10;100.00
9307;BME280;4691;47.612;7.610;2023-02-10T01:02:15;100460.16;;;-2.99;100.00
9307;BME280;4691;47.612;7.610;2023-02-10T01:04:40;100461.06;;;-2.92;100.00
9307;BME280;4691;47.612;7.610;2023-02-10T01:07:05;100462.78;;;-2.97;100.00
9307;BME280;4691;47.612;7.610;2023-02-10T01:09:31;100454.97;;;-2.85;100.00
9307;BME280;4691;47.612;7.610;2023-02-10T01:11:56;100450.59;;;-2.86;100.00
9307;BME280;4691;47.612;7.610;2023-02-10T01:14:22;100454.09;;;-2.90;100.00
9307;BME280;4691;47.612;7.610;2023-02-10T01:16:48;100444.47;;;-2.97;100.00
9307;BME280;4691;47.612;7.610;2023-02-10T01:19:14;100447.06;;;-3.00;100.00
9307;BME280;4691;47.612;7.610;2023-02-10T01:21:40;100444.47;;;-2.94;100.00
9307;BME280;4691;47.612;7.610;2023-02-10T01:24:06;100433.09;;;-2.96;100.00
9307;BME280;4691;47.612;7.610;2023-02-10T01:26:32;100440.94;;;-2.99;100.00
9307;BME280;4691;47.612;7.610;2023-02-10T01:28:58;100436.59;;;-3.00;100.00
9307;BME280;4691;47.612;7.610;2023-02-10T01:31:24;100434.84;;;-3.01;100.00
9307;BME280;4691;47.612;7.610;2023-02-10T01:33:53;100422.63;;;-3.05;100.00
9307;BME280;4691;47.612;7.610;2023-02-10T01:36:22;100423.50;;;-3.08;100.00
9307;BME280;4691;47.612;7.610;2023-02-10T01:38:47;100423.50;;;-2.99;100.00
9307;BME280;4691;47.612;7.610;2023-02-10T01:41:15;100418.25;;;-3.02;100.00
9307;BME280;4691;47.612;7.610;2023-02-10T01:46:41;100416.47;;;-3.18;100.00
9307;BME280;4691;47.612;7.610;2023-02-10T01:49:10;100419.91;;;-3.27;100.00
9307;BME280;4691;47.612;7.610;2023-02-10T01:54:21;100419.06;;;-3.23;100.00
9307;BME280;4691;47.612;7.610;2023-02-10T01:56:50;100406.84;;;-3.27;100.00
9307;BME280;4691;47.612;7.610;2023-02-10T01:59:18;100401.63;;;-3.21;100.00
9307;BME280;4691;47.612;7.610;2023-02-10T02:01:45;100403.38;;;-3.26;100.00
9307;BME280;4691;47.612;7.610;2023-02-10T02:04:10;100394.59;;;-3.34;100.00
9307;BME280;4691;47.612;7.610;2023-02-10T02:06:36;100399.88;;;-3.25;100.00
9307;BME280;4691;47.612;7.610;2023-02-10T02:09:02;100400.75;;;-3.26;100.00
9307;BME280;4691;47.612;7.610;2023-02-10T02:14:21;100404.22;;;-3.25;100.00
9307;BME280;4691;47.612;7.610;2023-02-10T02:17:18;100394.66;;;-3.19;100.00
9307;BME280;4691;47.612;7.610;2023-02-10T02:20:14;100398.97;;;-3.30;100.00
9307;BME280;4691;47.612;7.610;2023-02-10T02:23:10;100390.25;;;-3.38;100.00
9307;BME280;4691;47.612;7.610;2023-02-10T02:28:25;100389.28;;;-3.53;100.00
9307;BME280;4691;47.612;7.610;2023-02-10T02:31:26;100378.88;;;-3.37;100.00
9307;BME280;4691;47.612;7.610;2023-02-10T02:33:54;100376.25;;;-3.42;100.00
9307;BME280;4691;47.612;7.610;2023-02-10T02:36:34;100378.88;;;-3.43;100.00
9307;BME280;4691;47.612;7.610;2023-02-10T02:39:03;100383.25;;;-3.38;100.00
9307;BME280;4691;47.612;7.610;2023-02-10T02:41:30;100377.09;;;-3.47;100.00
9307;BME280;4691;47.612;7.610;2023-02-10T02:43:56;100368.41;;;-3.45;100.00
9307;BME280;4691;47.612;7.610;2023-02-10T02:51:39;100364.84;;;-3.64;100.00
9307;BME280;4691;47.612;7.610;2023-02-10T02:57:13;100358.72;;;-3.70;100.00
9307;BME280;4691;47.612;7.610;2023-02-10T02:59:47;100356.13;;;-3.69;100.00
9307;BME280;4691;47.612;7.610;2023-02-10T03:02:15;100356.13;;;-3.69;100.00
9307;BME280;4691;47.612;7.610;2023-02-10T03:04:43;100355.19;;;-3.76;100.00
9307;BME280;4691;47.612;7.610;2023-02-10T03:07:08;100350.03;;;-3.66;100.00
9307;BME280;4691;47.612;7.610;2023-02-10T03:09:34;100350.91;;;-3.63;100.00
9307;BME280;4691;47.612;7.610;2023-02-10T03:11:59;100350.03;;;-3.66;100.00
9307;BME280;4691;47.612;7.610;2023-02-10T03:14:25;100336.91;;;-3.71;100.00
9307;BME280;4691;47.612;7.610;2023-02-10T03:19:31;100313.31;;;-3.96;100.00
9307;BME280;4691;47.612;7.610;2023-02-10T03:21:56;100305.50;;;-3.82;100.00
9307;BME280;4691;47.612;7.610;2023-02-10T03:24:22;100297.69;;;-3.77;100.00
9307;BME280;4691;47.612;7.610;2023-02-10T03:26:47;100301.16;;;-3.75;100.00
9307;BME280;4691;47.612;7.610;2023-02-10T03:29:13;100280.28;;;-3.63;100.00
9307;BME280;4691;47.612;7.610;2023-02-10T03:31:39;100280.31;;;-3.57;100.00
9307;BME280;4691;47.612;7.610;2023-02-10T03:34:04;100280.31;;;-3.61;100.00
9307;BME280;4691;47.612;7.610;2023-02-10T03:36:30;100287.28;;;-3.63;100.00
9307;BME280;4691;47.612;7.610;2023-02-10T03:38:55;100293.34;;;-3.72;100.00
9307;BME280;4691;47.612;7.610;2023-02-10T03:41:20;100298.59;;;-3.66;100.00
9307;BME280;4691;47.612;7.610;2023-02-10T03:43:45;100309.91;;;-3.75;100.00
9307;BME280;4691;47.612;7.610;2023-02-10T03:46:11;100312.50;;;-3.73;100.00
9307;BME280;4691;47.612;7.610;2023-02-10T03:48:37;100321.22;;;-3.74;100.00
9307;BME280;4691;47.612;7.610;2023-02-10T03:51:06;100323.84;;;-3.74;100.00
9307;BME280;4691;47.612;7.610;2023-02-10T03:53:32;100325.59;;;-3.75;100.00
9307;BME280;4691;47.612;7.610;2023-02-10T03:55:57;100335.16;;;-3.74;100.00
9307;BME280;4691;47.612;7.610;2023-02-10T03:58:23;100327.31;;;-3.74;100.00
9307;BME280;4691;47.612;7.610;2023-02-10T04:00:49;100336.88;;;-3.80;100.00
9307;BME280;4691;47.612;7.610;2023-02-10T04:03:15;100336.88;;;-3.83;100.00
9307;BME280;4691;47.612;7.610;2023-02-10T04:05:40;100340.31;;;-3.90;100.00
9307;BME280;4691;47.612;7.610;2023-02-10T04:08:06;100347.28;;;-3.88;100.00
9307;BME280;4691;47.612;7.610;2023-02-10T04:10:31;100339.47;;;-3.86;100.00
9307;BME280;4691;47.612;7.610;2023-02-10T04:12:57;100335.94;;;-3.95;100.00
9307;BME280;4691;47.612;7.610;2023-02-10T04:15:22;100338.50;;;-4.04;100.00
9307;BME280;4691;47.612;7.610;2023-02-10T04:17:48;100338.56;;;-3.95;100.00
9307;BME280;4691;47.612;7.610;2023-02-10T04:20:13;100326.31;;;-4.05;100.00
9307;BME280;4691;47.612;7.610;2023-02-10T04:22:39;100320.25;;;-3.96;100.00
9307;BME280;4691;47.612;7.610;2023-02-10T04:25:05;100314.13;;;-4.01;100.00
9307;BME280;4691;47.612;7.610;2023-02-10T04:27:31;100315.84;;;-4.11;100.00
9307;BME280;4691;47.612;7.610;2023-02-10T04:29:56;100308.03;;;-4.05;100.00
9307;BME280;4691;47.612;7.610;2023-02-10T04:32:21;100307.22;;;-3.91;100.00
9307;BME280;4691;47.612;7.610;2023-02-10T04:34:47;100305.41;;;-4.02;100.00
9307;BME280;4691;47.612;7.610;2023-02-10T04:37:12;100314.06;;;-4.15;100.00
9307;BME280;4691;47.612;7.610;2023-02-10T04:39:38;100294.13;;;-4.01;100.00
9307;BME280;4691;47.612;7.610;2023-02-10T04:42:03;100290.59;;;-4.07;100.00
9307;BME280;4691;47.612;7.610;2023-02-10T04:44:28;100290.59;;;-4.01;100.00
9307;BME280;4691;47.612;7.610;2023-02-10T04:46:54;100291.41;;;-4.14;100.00
9307;BME280;4691;47.612;7.610;2023-02-10T04:49:19;100282.72;;;-4.15;100.00
9307;BME280;4691;47.612;7.610;2023-02-10T04:51:44;100287.06;;;-4.17;100.00
9307;BME280;4691;47.612;7.610;2023-02-10T04:54:09;100286.16;;;-4.22;100.00
9307;BME280;4691;47.612;7.610;2023-02-10T04:56:35;100276.63;;;-4.19;100.00
9307;BME280;4691;47.612;7.610;2023-02-10T04:59:00;100265.25;;;-4.22;100.00
9307;BME280;4691;47.612;7.610;2023-02-10T05:01:25;100268.66;;;-4.35;100.00
9307;BME280;4691;47.612;7.610;2023-02-10T05:03:51;100260.81;;;-4.42;100.00
9307;BME280;4691;47.612;7.610;2023-02-10T05:06:16;100242.53;;;-4.39;100.00
9307;BME280;4691;47.612;7.610;2023-02-10T05:08:42;100248.63;;;-4.41;100.00
9307;BME280;4691;47.612;7.610;2023-02-10T05:11:09;100252.19;;;-4.24;100.00
9307;BME280;4691;47.612;7.610;2023-02-10T05:13:34;100238.22;;;-4.27;100.00
9307;BME280;4691;47.612;7.610;2023-02-10T05:16:00;100246.06;;;-4.30;100.00
9307;BME280;4691;47.612;7.610;2023-02-10T05:18:28;100239.94;;;-4.32;100.00
9307;BME280;4691;47.612;7.610;2023-02-10T05:20:53;100228.63;;;-4.34;100.00
9307;BME280;4691;47.612;7.610;2023-02-10T05:23:19;100233.81;;;-4.41;100.00
9307;BME280;4691;47.612;7.610;2023-02-10T05:25:44;100232.13;;;-4.29;100.00
9307;BME280;4691;47.612;7.610;2023-02-10T05:28:09;100234.72;;;-4.35;100.00
9307;BME280;4691;47.612;7.610;2023-02-10T05:30:34;100230.31;;;-4.49;100.00
9307;BME280;4691;47.612;7.610;2023-02-10T05:33:00;100228.59;;;-4.38;100.00
9307;BME280;4691;47.612;7.610;2023-02-10T05:35:25;100221.69;;;-4.28;100.00
9307;BME280;4691;47.612;7.610;2023-02-10T05:37:50;100222.53;;;-4.35;100.00
9307;BME280;4691;47.612;7.610;2023-02-10T05:40:15;100219.94;;;-4.33;100.00
9307;BME280;4691;47.612;7.610;2023-02-10T05:42:41;100216.50;;;-4.14;100.00
9307;BME280;4691;47.612;7.610;2023-02-10T05:45:06;100218.22;;;-4.22;100.00
9307;BME280;4691;47.612;7.610;2023-02-10T05:47:32;100221.66;;;-4.35;100.00
9307;BME280;4691;47.612;7.610;2023-02-10T05:49:57;100218.13;;;-4.47;100.00
9307;BME280;4691;47.612;7.610;2023-02-10T05:52:22;100230.25;;;-4.58;100.00
9307;BME280;4691;47.612;7.610;2023-02-10T05:54:48;100216.34;;;-4.54;100.00
9307;BME280;4691;47.612;7.610;2023-02-10T05:57:13;100212.91;;;-4.47;100.00
9307;BME280;4691;47.612;7.610;2023-02-10T05:59:39;100214.66;;;-4.44;100.00
9307;BME280;4691;47.612;7.610;2023-02-10T06:02:04;100212.91;;;-4.47;100.00
9307;BME280;4691;47.612;7.610;2023-02-10T06:04:30;100214.59;;;-4.53;100.00
9307;BME280;4691;47.612;7.610;2023-02-10T06:06:55;100213.75;;;-4.54;100.00
9307;BME280;4691;47.612;7.610;2023-02-10T06:09:21;100214.63;;;-4.52;100.00
9307;BME280;4691;47.612;7.610;2023-02-10T06:11:49;100222.41;;;-4.58;100.00
9307;BME280;4691;47.612;7.610;2023-02-10T06:14:14;100220.63;;;-4.65;100.00
9307;BME280;4691;47.612;7.610;2023-02-10T06:16:39;100217.16;;;-4.67;100.00
9307;BME280;4691;47.612;7.610;2023-02-10T06:19:05;100216.19;;;-4.78;100.00
9307;BME280;4691;47.612;7.610;2023-02-10T06:21:30;100212.78;;;-4.65;100.00
9307;BME280;4691;47.612;7.610;2023-02-10T06:23:55;100209.28;;;-4.72;100.00
9307;BME280;4691;47.612;7.610;2023-02-10T06:26:21;100211.94;;;-4.67;100.00
9307;BME280;4691;47.612;7.610;2023-02-10T06:28:46;100217.97;;;-4.71;100.00
9307;BME280;4691;47.612;7.610;2023-02-10T06:31:11;100218.00;;;-4.68;100.00
9307;BME280;4691;47.612;7.610;2023-02-10T06:33:37;100219.75;;;-4.67;100.00
9307;BME280;4691;47.612;7.610;2023-02-10T06:36:03;100223.19;;;-4.71;100.00
9307;BME280;4691;47.612;7.610;2023-02-10T06:38:31;100219.72;;;-4.69;100.00
9307;BME280;4691;47.612;7.610;2023-02-10T06:40:57;100225.00;;;-4.61;100.00
9307;BME280;4691;47.612;7.610;2023-02-10T06:43:22;100224.16;;;-4.58;100.00
9307;BME280;4691;47.612;7.610;2023-02-10T06:45:47;100238.06;;;-4.58;100.00
9307;BME280;4691;47.612;7.610;2023-02-10T06:48:12;100231.94;;;-4.66;100.00
9307;BME280;4691;47.612;7.610;2023-02-10T06:50:38;100234.56;;;-4.60;100.00
9307;BME280;4691;47.612;7.610;2023-02-10T06:53:04;100234.53;;;-4.66;100.00
9307;BME280;4691;47.612;7.610;2023-02-10T06:55:29;100236.28;;;-4.65;100.00
9307;BME280;4691;47.612;7.610;2023-02-10T06:57:58;100234.59;;;-4.58;100.00
9307;BME280;4691;47.612;7.610;2023-02-10T07:00:23;100237.28;;;-4.46;100.00
9307;BME280;4691;47.612;7.610;2023-02-10T07:02:49;100247.75;;;-4.42;100.00
9307;BME280;4691;47.612;7.610;2023-02-10T07:05:14;100254.66;;;-4.48;100.00
9307;BME280;4691;47.612;7.610;2023-02-10T07:07:40;100267.78;;;-4.38;100.00
9307;BME280;4691;47.612;7.610;2023-02-10T07:10:06;100268.66;;;-4.35;100.00
9307;BME280;4691;47.612;7.610;2023-02-10T07:12:31;100285.28;;;-4.26;100.00
9307;BME280;4691;47.612;7.610;2023-02-10T07:14:56;100303.59;;;-4.18;100.00
9307;BME280;4691;47.612;7.610;2023-02-10T07:17:22;100323.66;;;-4.12;100.00
9307;BME280;4691;47.612;7.610;2023-02-10T07:19:47;100342.00;;;-4.05;100.00
9307;BME280;4691;47.612;7.610;2023-02-10T07:22:12;100356.88;;;-3.90;100.00
9307;BME280;4691;47.612;7.610;2023-02-10T07:24:38;100373.44;;;-3.88;100.00
9307;BME280;4691;47.612;7.610;2023-02-10T07:27:03;100389.13;;;-3.89;100.00
9307;BME280;4691;47.612;7.610;2023-02-10T07:29:29;100404.84;;;-3.83;100.00
9307;BME280;4691;47.612;7.610;2023-02-10T07:31:55;100418.78;;;-3.81;100.00
9307;BME280;4691;47.612;7.610;2023-02-10T07:34:23;100428.47;;;-3.69;100.00
9307;BME280;4691;47.612;7.610;2023-02-10T07:36:49;100445.03;;;-3.60;100.00
9307;BME280;4691;47.612;7.610;2023-02-10T07:39:20;100455.56;;;-3.57;100.00
9307;BME280;4691;47.612;7.610;2023-02-10T07:41:45;100464.25;;;-3.55;100.00
9307;BME280;4691;47.612;7.610;2023-02-10T07:44:10;100477.38;;;-3.50;100.00
9307;BME280;4691;47.612;7.610;2023-02-10T07:46:35;100486.16;;;-3.39;100.00
9307;BME280;4691;47.612;7.610;2023-02-10T07:49:01;100507.16;;;-3.28;100.00
9307;BME280;4691;47.612;7.610;2023-02-10T07:51:26;100513.28;;;-3.17;100.00
9307;BME280;4691;47.612;7.610;2023-02-10T07:53:52;100536.00;;;-3.13;100.00
9307;BME280;4691;47.612;7.610;2023-02-10T07:56:19;100546.50;;;-3.03;100.00
9307;BME280;4691;47.612;7.610;2023-02-10T07:58:45;100563.91;;;-3.15;100.00
9307;BME280;4691;47.612;7.610;2023-02-10T08:01:10;100575.34;;;-2.94;100.00
9307;BME280;4691;47.612;7.610;2023-02-10T08:03:36;100593.69;;;-2.88;100.00
9307;BME280;4691;47.612;7.610;2023-02-10T08:06:02;100611.16;;;-2.90;100.00
9307;BME280;4691;47.612;7.610;2023-02-10T08:08:28;100624.31;;;-2.79;100.00
9307;BME280;4691;47.612;7.610;2023-02-10T08:10:53;100646.06;;;-2.93;100.00
9307;BME280;4691;47.612;7.610;2023-02-10T08:13:20;100648.75;;;-2.76;100.00
9307;BME280;4691;47.612;7.610;2023-02-10T08:15:45;100655.91;;;-2.49;100.00
9307;BME280;4691;47.612;7.610;2023-02-10T08:18:10;100667.25;;;-2.48;100.00
9307;BME280;4691;47.612;7.610;2023-02-10T08:20:36;100669.03;;;-2.32;100.00
9307;BME280;4691;47.612;7.610;2023-02-10T08:23:01;100682.16;;;-2.29;100.00
9307;BME280;4691;47.612;7.610;2023-02-10T08:25:27;100697.09;;;-2.15;100.00
9307;BME280;4691;47.612;7.610;2023-02-10T08:27:52;100713.63;;;-2.24;100.00
9307;BME280;4691;47.612;7.610;2023-02-10T08:30:18;100718.13;;;-2.00;100.00
9307;BME280;4691;47.612;7.610;2023-02-10T08:32:43;100728.59;;;-2.00;100.00
9307;BME280;4691;47.612;7.610;2023-02-10T08:35:09;100741.78;;;-1.77;100.00
9307;BME280;4691;47.612;7.610;2023-02-10T08:37:34;100751.44;;;-1.68;100.00
9307;BME280;4691;47.612;7.610;2023-02-10T08:40:00;100764.47;;;-1.91;100.00
9307;BME280;4691;47.612;7.610;2023-02-10T08:42:27;100768.81;;;-1.90;100.00
9307;BME280;4691;47.612;7.610;2023-02-10T08:44:53;100771.53;;;-1.72;100.00
9307;BME280;4691;47.612;7.610;2023-02-10T08:47:18;100780.31;;;-1.56;100.00
9307;BME280;4691;47.612;7.610;2023-02-10T08:49:43;100796.09;;;-1.32;100.00
9307;BME280;4691;47.612;7.610;2023-02-10T08:52:09;100803.13;;;-1.35;100.00
9307;BME280;4691;47.612;7.610;2023-02-10T08:54:34;100805.75;;;-1.34;100.00
9307;BME280;4691;47.612;7.610;2023-02-10T08:57:00;100808.41;;;-1.09;100.00
9307;BME280;4691;47.612;7.610;2023-02-10T08:59:25;100825.03;;;-1.07;100.00
9307;BME280;4691;47.612;7.610;2023-02-10T09:01:51;100823.28;;;-1.20;100.00
9307;BME280;4691;47.612;7.610;2023-02-10T09:04:17;100831.16;;;-1.08;100.00
9307;BME280;4691;47.612;7.610;2023-02-10T09:06:43;100830.28;;;-1.04;100.00
9307;BME280;4691;47.612;7.610;2023-02-10T09:09:14;100839.94;;;-0.64;100.00
9307;BME280;4691;47.612;7.610;2023-02-10T09:11:41;100852.22;;;-0.67;100.00
9307;BME280;4691;47.612;7.610;2023-02-10T09:14:07;100861.84;;;-0.55;100.00
9307;BME280;4691;47.612;7.610;2023-02-10T09:16:33;100856.59;;;-0.59;100.00
9307;BME280;4691;47.612;7.610;2023-02-10T09:18:59;100861.88;;;-0.56;100.00
9307;BME280;4691;47.612;7.610;2023-02-10T09:21:24;100874.13;;;-0.20;100.00
9307;BME280;4691;47.612;7.610;2023-02-10T09:23:50;100880.25;;;-0.44;100.00
9307;BME280;4691;47.612;7.610;2023-02-10T09:26:16;100878.47;;;-0.05;100.00
9307;BME280;4691;47.612;7.610;2023-02-10T09:28:41;100893.41;;;-0.10;100.00
9307;BME280;4691;47.612;7.610;2023-02-10T09:31:08;100896.00;;;-0.06;100.00
9307;BME280;4691;47.612;7.610;2023-02-10T09:33:34;100893.25;;;0.40;100.00
9307;BME280;4691;47.612;7.610;2023-02-10T09:36:03;100898.50;;;0.43;100.00
9307;BME280;4691;47.612;7.610;2023-02-10T09:38:28;100898.50;;;0.43;100.00
9307;BME280;4691;47.612;7.610;2023-02-10T09:44:19;100905.44;;;0.66;100.00
9307;BME280;4691;47.612;7.610;2023-02-10T09:55:16;100919.06;;;1.45;100.00
9307;BME280;4691;47.612;7.610;2023-02-10T09:57:49;100928.78;;;1.37;100.00
9307;BME280;4691;47.612;7.610;2023-02-10T10:03:43;100920.38;;;1.98;100.00
9307;BME280;4691;47.612;7.610;2023-02-10T10:13:57;100931.84;;;3.41;100.00
9307;BME280;4691;47.612;7.610;2023-02-10T10:16:43;100923.19;;;5.59;100.00
9307;BME280;4691;47.612;7.610;2023-02-10T10:19:20;100886.38;;;9.13;100.00
9307;BME280;4691;47.612;7.610;2023-02-10T10:24:38;100873.91;;;7.91;100.00
9307;BME280;4691;47.612;7.610;2023-02-10T10:29:53;100889.00;;;8.17;100.00
9307;BME280;4691;47.612;7.610;2023-02-10T10:35:56;100831.03;;;10.82;100.00
9307;BME280;4691;47.612;7.610;2023-02-10T10:38:31;100807.59;;;10.87;100.00
9307;BME280;4691;47.612;7.610;2023-02-10T10:41:03;100763.88;;;12.10;100.00
9307;BME280;4691;47.612;7.610;2023-02-10T10:43:34;100773.16;;;12.53;100.00
9307;BME280;4691;47.612;7.610;2023-02-10T10:46:06;100782.78;;;11.56;100.00
9307;BME280;4691;47.612;7.610;2023-02-10T10:48:37;100742.16;;;12.63;100.00
9307;BME280;4691;47.612;7.610;2023-02-10T10:51:05;100772.03;;;12.08;100.00
9307;BME280;4691;47.612;7.610;2023-02-10T10:56:07;100787.81;;;10.12;100.00
9307;BME280;4691;47.612;7.610;2023-02-10T10:58:39;100748.47;;;11.63;100.00
9307;BME280;4691;47.612;7.610;2023-02-10T11:01:05;100757.75;;;12.41;100.00
9307;BME280;4691;47.612;7.610;2023-02-10T11:03:32;100740.34;;;11.47;100.00
9307;BME280;4691;47.612;7.610;2023-02-10T11:06:08;100716.31;;;13.24;100.00
9307;BME280;4691;47.612;7.610;2023-02-10T11:08:39;100725.75;;;12.54;100.00
9307;BME280;4691;47.612;7.610;2023-02-10T11:11:09;100729.09;;;12.41;100.00
9307;BME280;4691;47.612;7.610;2023-02-10T11:13:38;100742.72;;;11.36;100.00
9307;BME280;4691;47.612;7.610;2023-02-10T11:16:06;100712.09;;;13.50;100.00
9307;BME280;4691;47.612;7.610;2023-02-10T11:18:32;100732.78;;;11.72;100.00
9307;BME280;4691;47.612;7.610;2023-02-10T11:21:04;100719.84;;;12.79;100.00
9307;BME280;4691;47.612;7.610;2023-02-10T11:23:30;100685.75;;;14.29;100.00
9307;BME280;4691;47.612;7.610;2023-02-10T11:26:15;100657.16;;;15.09;100.00
9307;BME280;4691;47.612;7.610;2023-02-10T11:28:41;100717.03;;;13.12;100.00
9307;BME280;4691;47.612;7.610;2023-02-10T11:31:29;100710.94;;;12.62;100.00
9307;BME280;4691;47.612;7.610;2023-02-10T11:34:12;100700.94;;;12.96;100.00
9307;BME280;4691;47.612;7.610;2023-02-10T11:36:41;100648.19;;;14.96;100.00
9307;BME280;4691;47.612;7.610;2023-02-10T11:39:21;100669.63;;;13.11;100.00
9307;BME280;4691;47.612;7.610;2023-02-10T11:41:48;100664.50;;;14.80;100.00
9307;BME280;4691;47.612;7.610;2023-02-10T11:44:30;100682.84;;;12.84;100.00
9307;BME280;4691;47.612;7.610;2023-02-10T11:47:02;100693.41;;;13.33;100.00
9307;BME280;4691;47.612;7.610;2023-02-10T11:49:30;100634.28;;;15.02;100.00
9307;BME280;4691;47.612;7.610;2023-02-10T11:52:01;100603.31;;;15.48;100.00
9307;BME280;4691;47.612;7.610;2023-02-10T11:54:27;100644.38;;;14.44;100.00
9307;BME280;4691;47.612;7.610;2023-02-10T11:57:21;100624.63;;;15.38;100.00
9307;BME280;4691;47.612;7.610;2023-02-10T12:05:50;100613.56;;;14.90;100.00
9307;BME280;4691;47.612;7.610;2023-02-10T12:08:40;100573.94;;;17.14;100.00
9307;BME280;4691;47.612;7.610;2023-02-10T12:16:30;100608.41;;;14.45;100.00
9307;BME280;4691;47.612;7.610;2023-02-10T12:19:04;100622.72;;;14.19;100.00
9307;BME280;4691;47.612;7.610;2023-02-10T12:21:51;100594.41;;;16.70;100.00
9307;BME280;4691;47.612;7.610;2023-02-10T12:26:57;100567.28;;;17.07;100.00
9307;BME280;4691;47.612;7.610;2023-02-10T12:32:21;100620.97;;;15.13;100.00
9307;BME280;4691;47.612;7.610;2023-02-10T12:49:14;100603.75;;;15.67;100.00
9307;BME280;4691;47.612;7.610;2023-02-10T12:51:57;100579.97;;;15.98;100.00
9307;BME280;4691;47.612;7.610;2023-02-10T12:54:32;100550.78;;;18.02;100.00
9307;BME280;4691;47.612;7.610;2023-02-10T12:57:05;100585.44;;;15.72;100.00
9307;BME280;4691;47.612;7.610;2023-02-10T12:59:48;100558.19;;;16.97;100.00
9307;BME280;4691;47.612;7.610;2023-02-10T13:02:19;100602.31;;;14.29;100.00
9307;BME280;4691;47.612;7.610;2023-02-10T13:05:08;100568.00;;;15.89;100.00
9307;BME280;4691;47.612;7.610;2023-02-10T13:07:49;100639.44;;;12.61;100.00
9307;BME280;4691;47.612;7.610;2023-02-10T13:12:53;100485.22;;;17.98;100.00
9307;BME280;4691;47.612;7.610;2023-02-10T13:15:29;100522.78;;;15.93;100.00
9307;BME280;4691;47.612;7.610;2023-02-10T13:17:55;100504.78;;;17.23;100.00
9307;BME280;4691;47.612;7.610;2023-02-10T13:20:26;100483.44;;;18.20;100.00
9307;BME280;4691;47.612;7.610;2023-02-10T13:31:32;100524.13;;;15.61;100.00
9307;BME280;4691;47.612;7.610;2023-02-10T13:34:15;100509.00;;;15.84;100.00
9307;BME280;4691;47.612;7.610;2023-02-10T13:36:42;100479.22;;;17.05;100.00
9307;BME280;4691;47.612;7.610;2023-02-10T13:39:19;100592.69;;;13.55;100.00
9307;BME280;4691;47.612;7.610;2023-02-10T13:41:47;100504.72;;;15.69;100.00
9307;BME280;4691;47.612;7.610;2023-02-10T13:46:53;100490.50;;;16.98;100.00
9307;BME280;4691;47.612;7.610;2023-02-10T13:49:20;100429.63;;;19.10;100.00
9307;BME280;4691;47.612;7.610;2023-02-10T13:51:46;100497.84;;;16.85;100.00
9307;BME280;4691;47.612;7.610;2023-02-10T13:54:30;100518.69;;;15.87;100.00
9307;BME280;4691;47.612;7.610;2023-02-10T13:56:57;100513.91;;;16.03;100.00
9307;BME280;4691;47.612;7.610;2023-02-10T14:04:43;100628.88;;;12.89;100.00
9307;BME280;4691;47.612;7.610;2023-02-10T14:12:31;100613.97;;;13.43;100.00
9307;BME280;4691;47.612;7.610;2023-02-10T14:15:17;100669.19;;;10.53;100.00
9307;BME280;4691;47.612;7.610;2023-02-10T14:17:59;100714.78;;;9.91;100.00
9307;BME280;4691;47.612;7.610;2023-02-10T14:20:34;100734.53;;;9.05;100.00
9307;BME280;4691;47.612;7.610;2023-02-10T14:23:01;100743.66;;;9.83;100.00
9307;BME280;4691;47.612;7.610;2023-02-10T14:25:31;100734.75;;;9.84;100.00
9307;BME280;4691;47.612;7.610;2023-02-10T14:27:58;100742.47;;;9.70;100.00
9307;BME280;4691;47.612;7.610;2023-02-10T14:30:43;100642.00;;;15.34;100.00
9307;BME280;4691;47.612;7.610;2023-02-10T14:33:20;100597.03;;;15.21;100.00
9307;BME280;4691;47.612;7.610;2023-02-10T14:35:51;100565.22;;;15.65;100.00
9307;BME280;4691;47.612;7.610;2023-02-10T14:38:30;100641.75;;;12.68;100.00
9307;BME280;4691;47.612;7.610;2023-02-10T14:40:58;100673.47;;;11.96;100.00
9307;BME280;4691;47.612;7.610;2023-02-10T14:43:27;100679.66;;;11.63;100.00
9307;BME280;4691;47.612;7.610;2023-02-10T14:45:54;100704.03;;;10.32;100.00
9307;BME280;4691;47.612;7.610;2023-02-10T14:48:22;100743.59;;;9.01;100.00
9307;BME280;4691;47.612;7.610;2023-02-10T14:51:16;100735.13;;;9.34;100.00
9307;BME280;4691;47.612;7.610;2023-02-10T14:53:42;100745.16;;;9.49;100.00
9307;BME280;4691;47.612;7.610;2023-02-10T14:56:27;100742.72;;;9.23;100.00
9307;BME280;4691;47.612;7.610;2023-02-10T14:58:54;100775.25;;;8.66;100.00